Flight Track Log - Related Links

Times and Time Zones

All times are in EDT time to prevent confusion due to time zone crossing. See the GLA1X flight status page for this flight to view local times or setup timezone preferences in your user account.

Time Position Orientation Groundspeed Altitude Reporting Facility
EDT Latitude Longitude Course Direction KTS MPH feet Rate Location/Type
Tue 09:26:06 AM 35.6386 -106.1400 334° Northwest 217 250 8,300  Level Albuquerque Center
Tue 09:27:06 AM 35.6936 -106.1344 North 205 236 10,000 1,636 Climbing Albuquerque Center
Tue 09:28:07 AM 35.7625 -106.1244 North 205 236 11,600 1,426 Climbing Albuquerque Center
Tue 09:29:08 AM 35.8225 -106.1128 North 211 243 12,900 1,180 Climbing Albuquerque Center
Tue 09:30:00 AM 36.3155 -105.9528 North  Level FlightAware Approximate
Tue 09:30:09 AM 35.8839 -106.0975 11° North 218 251 14,000  Level Albuquerque Center
Tue 09:31:10 AM 35.9453 -106.0767 15° North 225 259 15,100 1,082 Climbing Albuquerque Center
Tue 09:32:11 AM 36.0092 -106.0583 13° North 232 267 16,200 934 Climbing Albuquerque Center
Tue 09:33:12 AM 36.0744 -106.0439 10° North 236 272 17,000 836 Climbing Albuquerque Center
Tue 09:34:13 AM 36.1417 -106.0264 12° North 243 280 17,900 738 Climbing Albuquerque Center
Tue 09:35:14 AM 36.2122 -106.0119 North 255 293 18,500 645 Climbing Albuquerque Center
Tue 09:36:14 AM 36.2825 -105.9981 North 256 295 19,200 694 Climbing Albuquerque Center
Tue 09:37:15 AM 36.3519 -105.9792 12° North 257 296 19,900 683 Climbing Albuquerque Center
Tue 09:38:17 AM 36.4222 -105.9617 11° North 257 296 20,600 634 Climbing Albuquerque Center
Tue 09:39:18 AM 36.5014 -105.9394 13° North 257 296 21,200 639 Climbing Albuquerque Center
Tue 09:40:19 AM 36.5694 -105.9253 North 258 297 21,900 689 Climbing Albuquerque Center
Tue 09:41:20 AM 36.6497 -105.9122 North 259 298 22,600 593 Climbing Albuquerque Center
Tue 09:41:40 AM 36.6622 -105.9097 North 257 296 22,700 444 Climbing Denver Center
Tue 09:42:41 AM 36.7339 -105.9011 North 258 297 23,200 492 Climbing Denver Center
Tue 09:43:42 AM 36.8114 -105.8811 12° North 264 304 23,700 393 Climbing Denver Center
Tue 09:44:43 AM 36.8892 -105.8722 North 259 298 24,000 148 Climbing Denver Center
Tue 09:45:44 AM 36.9589 -105.8617 North 263 303 24,000  Level Denver Center
Tue 09:46:46 AM 37.0417 -105.8450 North 268 308 24,000  Level Denver Center
Tue 09:47:47 AM 37.1153 -105.8386 North 266 306 24,000  Level Denver Center
Tue 09:48:48 AM 37.1844 -105.8367 North 261 300 24,000  Level Denver Center
Tue 09:49:49 AM 37.2653 -105.8286 North 267 307 24,000  Level Denver Center
Tue 09:50:50 AM 37.3314 -105.8144 10° North 275 316 24,000  Level Denver Center
Tue 09:51:52 AM 37.4122 -105.8269 353° North 267 307 24,000 -44 Level Denver Center
Tue 09:53:05 AM 37.4961 -105.8389 354° North 268 308 23,900  Descending Denver Center
Tue 09:54:06 AM 37.5744 -105.8572 349° North 261 300 24,000 49 Climbing Denver Center
Tue 09:55:08 AM 37.6589 -105.8692 354° North 268 308 24,000  Level Denver Center
Tue 09:56:09 AM 37.7314 -105.8792 354° North 271 312 24,000  Level Denver Center
Tue 09:57:10 AM 37.8031 -105.8933 351° North 271 312 24,000  Level Denver Center
Tue 09:58:12 AM 37.8861 -105.9078 352° North 270 311 24,000  Level Denver Center
Tue 09:59:13 AM 37.9547 -105.9256 348° North 265 305 24,000  Level Denver Center
Tue 10:00:14 AM 38.0239 -105.9400 351° North 262 302 24,000  Level Denver Center
Tue 10:01:16 AM 38.1058 -105.9583 350° North 266 306 24,000  Level Denver Center
Tue 10:02:17 AM 38.1761 -105.9711 352° North 266 306 24,000 49 Level Denver Center
Tue 10:03:19 AM 38.2558 -105.9886 350° North 262 302 24,100  Climbing Denver Center
Tue 10:04:20 AM 38.3247 -106.0033 350° North 262 302 24,000 -49 Descending Denver Center
Tue 10:05:22 AM 38.3947 -106.0206 349° North 265 305 24,000  Level Denver Center
Tue 10:06:23 AM 38.4764 -106.0392 350° North 266 306 24,000  Level Denver Center
Tue 10:07:25 AM 38.5464 -106.0533 351° North 265 305 24,000  Level Denver Center
Tue 10:08:26 AM 38.6303 -106.0667 353° North 268 308 24,000  Level Denver Center
Tue 10:09:28 AM 38.7011 -106.0792 352° North 269 310 24,000 -49 Level Denver Center
Tue 10:10:29 AM 38.7719 -106.0767 North 266 306 23,900 -780 Descending Denver Center
Tue 10:11:31 AM 38.8328 -105.9808 51° Northeast 316 364 22,400 -1,463 Descending Denver Center
Tue 10:12:32 AM 38.8772 -105.8914 57° Northeast 316 364 20,900 -1,220 Descending Denver Center
Tue 10:13:34 AM 38.9356 -105.7911 53° Northeast 314 361 19,900 -1,024 Descending Denver Center
Tue 10:14:35 AM 38.9906 -105.7097 49° Northeast 313 360 18,800 -1,268 Descending Denver Center
Tue 10:15:37 AM 39.0450 -105.6275 50° Northeast 312 359 17,300 -1,220 Descending Denver Center
Tue 10:16:38 AM 39.0972 -105.5472 50° Northeast 303 349 16,300 -829 Descending Denver Center
Tue 10:17:40 AM 39.1556 -105.4564 50° Northeast 291 335 15,600 -683 Descending Denver Center
Tue 10:18:41 AM 39.2089 -105.3833 47° Northeast 284 327 14,900 -390 Descending Denver Center
Tue 10:19:43 AM 39.2575 -105.3072 50° Northeast 276 318 14,800 -484 Descending Denver Center
Tue 10:20:45 AM 39.3103 -105.2267 50° Northeast 275 316 13,900 -732 Descending Denver Center
Tue 10:21:46 AM 39.3389 -105.1375 67° East 271 312 13,300 -439 Descending Denver Center
Tue 10:22:48 AM 39.3517 -105.0411 80° East 276 318 13,000 -97 Descending Denver Center
Tue 10:23:50 AM 39.3775 -104.9372 72° East 283 326 13,100 -293 Climbing Denver Center
Tue 10:24:51 AM 39.4028 -104.8419 71° East 281 323 12,400 -780 Descending Denver Center
Tue 10:25:53 AM 39.4331 -104.7500 67° East 280 322 11,500 -629 Descending Denver Center
Tue 10:26:55 AM 39.4861 -104.6767 47° Northeast 282 325 11,100 -387 Descending Denver Center
Tue 10:27:57 AM 39.5628 -104.6625 North 281 323 10,700 -878 Descending Denver Center
Tue 10:28:58 AM 39.6381 -104.6636 359° North 256 295 9,300 -1,122 Descending Denver Center
Tue 10:30:00 AM 39.6842 -104.6636 360° North 225 259 8,400 -1,113 Descending Denver Center
Tue 10:31:02 AM 39.7542 -104.6622 North 194 223 7,000 -1,161 Descending Denver Center
Tue 10:32:04 AM 39.8031 -104.6617 North 180 207 6,000 -774 Descending Denver Center
Tue 10:33:06 AM 39.8425 -104.6600 North 149 171 5,400 -581 Descending Denver Center
Tue 10:35:00 AM 39.8500 -104.6667 346° North  Level FlightAware Approximate
Tue 10:42:00 AM 39.8617 -104.6732 346° North  Level Estimated
Tue 10:43:00 AM 39.8617 -104.6732 346° North  Level Estimated

Login

Don't have an account? Register now (free) for customized features, flight alerts, and more!